sensor_id;sensor_type;location;lat;lon;timestamp;P1;durP1;ratioP1;P2;durP2;ratioP2
22949;SDS011;11641;51.018;4.474;2022-09-01T00:01:33;7.60;;;2.35;;
22949;SDS011;11641;51.018;4.474;2022-09-01T00:04:04;4.07;;;1.67;;
22949;SDS011;11641;51.018;4.474;2022-09-01T00:06:32;6.03;;;1.63;;
22949;SDS011;11641;51.018;4.474;2022-09-01T00:09:05;7.93;;;1.88;;
22949;SDS011;11641;51.018;4.474;2022-09-01T00:11:41;5.78;;;1.60;;
22949;SDS011;11641;51.018;4.474;2022-09-01T00:14:13;3.65;;;1.58;;
22949;SDS011;11641;51.018;4.474;2022-09-01T00:16:40;4.22;;;1.75;;
22949;SDS011;11641;51.018;4.474;2022-09-01T00:19:06;7.93;;;1.70;;
22949;SDS011;11641;51.018;4.474;2022-09-01T00:21:35;9.07;;;1.80;;
22949;SDS011;11641;51.018;4.474;2022-09-01T00:24:03;4.68;;;1.30;;
22949;SDS011;11641;51.018;4.474;2022-09-01T00:26:32;3.85;;;1.70;;
22949;SDS011;11641;51.018;4.474;2022-09-01T00:28:58;3.22;;;1.33;;
22949;SDS011;11641;51.018;4.474;2022-09-01T00:31:28;6.90;;;1.60;;
22949;SDS011;11641;51.018;4.474;2022-09-01T00:33:57;5.18;;;1.35;;
22949;SDS011;11641;51.018;4.474;2022-09-01T00:36:23;7.35;;;1.50;;
22949;SDS011;11641;51.018;4.474;2022-09-01T00:38:49;2.45;;;1.02;;
22949;SDS011;11641;51.018;4.474;2022-09-01T00:41:21;3.00;;;1.13;;
22949;SDS011;11641;51.018;4.474;2022-09-01T00:43:54;7.35;;;1.30;;
22949;SDS011;11641;51.018;4.474;2022-09-01T00:46:26;5.93;;;1.50;;
22949;SDS011;11641;51.018;4.474;2022-09-01T00:49:03;4.18;;;1.13;;
22949;SDS011;11641;51.018;4.474;2022-09-01T00:51:36;2.95;;;1.50;;
22949;SDS011;11641;51.018;4.474;2022-09-01T00:54:06;2.55;;;0.90;;
22949;SDS011;11641;51.018;4.474;2022-09-01T00:56:37;5.13;;;1.25;;
22949;SDS011;11641;51.018;4.474;2022-09-01T00:59:05;5.75;;;0.98;;
22949;SDS011;11641;51.018;4.474;2022-09-01T01:01:32;8.70;;;2.78;;
22949;SDS011;11641;51.018;4.474;2022-09-01T01:04:02;2.58;;;1.27;;
22949;SDS011;11641;51.018;4.474;2022-09-01T01:06:39;2.65;;;1.15;;
22949;SDS011;11641;51.018;4.474;2022-09-01T01:09:14;4.97;;;1.40;;
22949;SDS011;11641;51.018;4.474;2022-09-01T01:11:42;3.08;;;1.13;;
22949;SDS011;11641;51.018;4.474;2022-09-01T01:14:12;3.28;;;1.02;;
22949;SDS011;11641;51.018;4.474;2022-09-01T01:16:41;2.80;;;1.13;;
22949;SDS011;11641;51.018;4.474;2022-09-01T01:22:15;4.75;;;1.20;;
22949;SDS011;11641;51.018;4.474;2022-09-01T01:25:19;1.95;;;0.93;;
22949;SDS011;11641;51.018;4.474;2022-09-01T01:27:47;6.28;;;1.15;;
22949;SDS011;11641;51.018;4.474;2022-09-01T01:30:18;7.13;;;1.27;;
22949;SDS011;11641;51.018;4.474;2022-09-01T01:32:45;2.70;;;1.20;;
22949;SDS011;11641;51.018;4.474;2022-09-01T01:35:13;9.85;;;1.35;;
22949;SDS011;11641;51.018;4.474;2022-09-01T01:37:42;2.50;;;1.10;;
22949;SDS011;11641;51.018;4.474;2022-09-01T01:40:14;4.78;;;1.25;;
22949;SDS011;11641;51.018;4.474;2022-09-01T01:42:47;11.77;;;1.23;;
22949;SDS011;11641;51.018;4.474;2022-09-01T01:45:18;5.18;;;1.38;;
22949;SDS011;11641;51.018;4.474;2022-09-01T01:47:49;1.95;;;0.90;;
22949;SDS011;11641;51.018;4.474;2022-09-01T01:50:28;6.65;;;1.25;;
22949;SDS011;11641;51.018;4.474;2022-09-01T01:52:59;3.50;;;1.10;;
22949;SDS011;11641;51.018;4.474;2022-09-01T01:55:30;3.25;;;0.90;;
22949;SDS011;11641;51.018;4.474;2022-09-01T01:57:56;4.25;;;0.93;;
22949;SDS011;11641;51.018;4.474;2022-09-01T02:00:24;4.82;;;0.90;;
22949;SDS011;11641;51.018;4.474;2022-09-01T02:02:56;2.70;;;0.93;;
22949;SDS011;11641;51.018;4.474;2022-09-01T02:05:29;1.85;;;0.90;;
22949;SDS011;11641;51.018;4.474;2022-09-01T02:08:02;5.50;;;1.40;;
22949;SDS011;11641;51.018;4.474;2022-09-01T02:10:40;4.25;;;0.90;;
22949;SDS011;11641;51.018;4.474;2022-09-01T02:13:14;7.93;;;1.15;;
22949;SDS011;11641;51.018;4.474;2022-09-01T02:15:49;6.55;;;1.17;;
22949;SDS011;11641;51.018;4.474;2022-09-01T02:18:22;8.32;;;1.13;;
22949;SDS011;11641;51.018;4.474;2022-09-01T02:20:52;3.60;;;1.30;;
22949;SDS011;11641;51.018;4.474;2022-09-01T02:23:25;4.95;;;1.33;;
22949;SDS011;11641;51.018;4.474;2022-09-01T02:25:52;1.75;;;0.93;;
22949;SDS011;11641;51.018;4.474;2022-09-01T02:28:25;7.40;;;1.10;;
22949;SDS011;11641;51.018;4.474;2022-09-01T02:30:56;9.13;;;1.45;;
22949;SDS011;11641;51.018;4.474;2022-09-01T02:33:24;3.33;;;1.15;;
22949;SDS011;11641;51.018;4.474;2022-09-01T02:35:53;5.18;;;1.40;;
22949;SDS011;11641;51.018;4.474;2022-09-01T02:38:21;4.45;;;1.00;;
22949;SDS011;11641;51.018;4.474;2022-09-01T02:40:52;2.25;;;1.10;;
22949;SDS011;11641;51.018;4.474;2022-09-01T02:43:18;3.25;;;1.27;;
22949;SDS011;11641;51.018;4.474;2022-09-01T02:45:48;6.30;;;1.17;;
22949;SDS011;11641;51.018;4.474;2022-09-01T02:48:20;4.05;;;1.20;;
22949;SDS011;11641;51.018;4.474;2022-09-01T02:51:00;3.22;;;1.20;;
22949;SDS011;11641;51.018;4.474;2022-09-01T02:53:31;4.18;;;1.02;;
22949;SDS011;11641;51.018;4.474;2022-09-01T02:56:02;6.95;;;1.50;;
22949;SDS011;11641;51.018;4.474;2022-09-01T02:58:33;2.40;;;1.30;;
22949;SDS011;11641;51.018;4.474;2022-09-01T03:01:09;5.95;;;1.40;;
22949;SDS011;11641;51.018;4.474;2022-09-01T03:03:46;4.63;;;1.30;;
22949;SDS011;11641;51.018;4.474;2022-09-01T03:06:13;4.65;;;1.50;;
22949;SDS011;11641;51.018;4.474;2022-09-01T03:08:42;2.88;;;1.30;;
22949;SDS011;11641;51.018;4.474;2022-09-01T03:11:10;2.92;;;1.30;;
22949;SDS011;11641;51.018;4.474;2022-09-01T03:13:44;8.18;;;1.65;;
22949;SDS011;11641;51.018;4.474;2022-09-01T03:16:10;2.80;;;1.30;;
22949;SDS011;11641;51.018;4.474;2022-09-01T03:18:36;3.05;;;1.42;;
22949;SDS011;11641;51.018;4.474;2022-09-01T03:21:07;7.22;;;1.70;;
22949;SDS011;11641;51.018;4.474;2022-09-01T03:23:43;4.57;;;1.30;;
22949;SDS011;11641;51.018;4.474;2022-09-01T03:26:18;7.53;;;1.70;;
22949;SDS011;11641;51.018;4.474;2022-09-01T03:28:46;7.65;;;1.40;;
22949;SDS011;11641;51.018;4.474;2022-09-01T03:31:18;4.80;;;1.80;;
22949;SDS011;11641;51.018;4.474;2022-09-01T03:33:45;6.13;;;1.55;;
22949;SDS011;11641;51.018;4.474;2022-09-01T03:36:11;8.55;;;1.70;;
22949;SDS011;11641;51.018;4.474;2022-09-01T03:38:45;4.32;;;1.70;;
22949;SDS011;11641;51.018;4.474;2022-09-01T03:41:18;4.78;;;1.50;;
22949;SDS011;11641;51.018;4.474;2022-09-01T03:43:46;9.55;;;1.98;;
22949;SDS011;11641;51.018;4.474;2022-09-01T03:46:15;3.53;;;1.73;;
22949;SDS011;11641;51.018;4.474;2022-09-01T03:48:46;5.20;;;1.77;;
22949;SDS011;11641;51.018;4.474;2022-09-01T03:51:15;6.78;;;1.80;;
22949;SDS011;11641;51.018;4.474;2022-09-01T03:53:46;5.20;;;2.00;;
22949;SDS011;11641;51.018;4.474;2022-09-01T03:56:20;4.95;;;1.75;;
22949;SDS011;11641;51.018;4.474;2022-09-01T03:58:53;5.05;;;1.80;;
22949;SDS011;11641;51.018;4.474;2022-09-01T04:01:23;3.92;;;1.80;;
22949;SDS011;11641;51.018;4.474;2022-09-01T04:04:12;7.60;;;2.00;;
22949;SDS011;11641;51.018;4.474;2022-09-01T04:06:40;6.75;;;1.92;;
22949;SDS011;11641;51.018;4.474;2022-09-01T04:09:08;6.00;;;1.92;;
22949;SDS011;11641;51.018;4.474;2022-09-01T04:11:35;9.43;;;1.88;;
22949;SDS011;11641;51.018;4.474;2022-09-01T04:14:03;2.88;;;1.60;;
22949;SDS011;11641;51.018;4.474;2022-09-01T04:16:30;4.88;;;1.90;;
22949;SDS011;11641;51.018;4.474;2022-09-01T04:19:18;5.45;;;1.90;;
22949;SDS011;11641;51.018;4.474;2022-09-01T04:21:57;7.55;;;2.17;;
22949;SDS011;11641;51.018;4.474;2022-09-01T04:26:55;5.80;;;2.28;;
22949;SDS011;11641;51.018;4.474;2022-09-01T04:29:23;6.97;;;2.50;;
22949;SDS011;11641;51.018;4.474;2022-09-01T04:31:57;5.57;;;1.92;;
22949;SDS011;11641;51.018;4.474;2022-09-01T04:34:30;6.47;;;2.47;;
22949;SDS011;11641;51.018;4.474;2022-09-01T04:37:20;4.20;;;2.10;;
22949;SDS011;11641;51.018;4.474;2022-09-01T04:39:50;7.30;;;2.30;;
22949;SDS011;11641;51.018;4.474;2022-09-01T04:42:18;5.47;;;2.00;;
22949;SDS011;11641;51.018;4.474;2022-09-01T04:44:48;4.75;;;2.17;;
22949;SDS011;11641;51.018;4.474;2022-09-01T04:47:15;9.10;;;2.28;;
22949;SDS011;11641;51.018;4.474;2022-09-01T04:49:44;6.18;;;2.50;;
22949;SDS011;11641;51.018;4.474;2022-09-01T04:52:12;5.97;;;2.25;;
22949;SDS011;11641;51.018;4.474;2022-09-01T04:54:40;5.18;;;2.10;;
22949;SDS011;11641;51.018;4.474;2022-09-01T04:57:08;6.80;;;2.80;;
22949;SDS011;11641;51.018;4.474;2022-09-01T04:59:34;6.05;;;2.40;;
22949;SDS011;11641;51.018;4.474;2022-09-01T05:02:00;8.43;;;2.72;;
22949;SDS011;11641;51.018;4.474;2022-09-01T05:04:29;12.25;;;2.63;;
22949;SDS011;11641;51.018;4.474;2022-09-01T05:06:57;8.77;;;3.30;;
22949;SDS011;11641;51.018;4.474;2022-09-01T05:09:32;5.50;;;2.95;;
22949;SDS011;11641;51.018;4.474;2022-09-01T05:12:01;8.63;;;3.03;;
22949;SDS011;11641;51.018;4.474;2022-09-01T05:14:43;9.95;;;3.20;;
22949;SDS011;11641;51.018;4.474;2022-09-01T05:17:14;12.80;;;3.15;;
22949;SDS011;11641;51.018;4.474;2022-09-01T05:19:43;10.68;;;3.47;;
22949;SDS011;11641;51.018;4.474;2022-09-01T05:22:31;12.48;;;3.22;;
22949;SDS011;11641;51.018;4.474;2022-09-01T05:24:58;16.83;;;4.15;;
22949;SDS011;11641;51.018;4.474;2022-09-01T05:27:38;7.07;;;3.38;;
22949;SDS011;11641;51.018;4.474;2022-09-01T05:30:20;9.70;;;3.25;;
22949;SDS011;11641;51.018;4.474;2022-09-01T05:32:46;16.02;;;3.70;;
22949;SDS011;11641;51.018;4.474;2022-09-01T05:35:13;12.82;;;4.22;;
22949;SDS011;11641;51.018;4.474;2022-09-01T05:37:41;10.93;;;4.10;;
22949;SDS011;11641;51.018;4.474;2022-09-01T05:40:08;14.27;;;3.53;;
22949;SDS011;11641;51.018;4.474;2022-09-01T05:42:40;12.30;;;4.22;;
22949;SDS011;11641;51.018;4.474;2022-09-01T05:45:11;7.13;;;3.88;;
22949;SDS011;11641;51.018;4.474;2022-09-01T05:47:38;13.40;;;4.70;;
22949;SDS011;11641;51.018;4.474;2022-09-01T05:50:04;11.63;;;4.45;;
22949;SDS011;11641;51.018;4.474;2022-09-01T05:52:35;11.52;;;4.25;;
22949;SDS011;11641;51.018;4.474;2022-09-01T05:55:04;14.63;;;4.93;;
22949;SDS011;11641;51.018;4.474;2022-09-01T05:57:34;12.35;;;4.93;;
22949;SDS011;11641;51.018;4.474;2022-09-01T06:00:03;12.82;;;4.80;;
22949;SDS011;11641;51.018;4.474;2022-09-01T06:02:35;10.73;;;5.03;;
22949;SDS011;11641;51.018;4.474;2022-09-01T06:05:02;10.88;;;4.78;;
22949;SDS011;11641;51.018;4.474;2022-09-01T06:07:30;9.77;;;4.20;;
22949;SDS011;11641;51.018;4.474;2022-09-01T06:09:59;13.43;;;5.30;;
22949;SDS011;11641;51.018;4.474;2022-09-01T06:12:26;11.82;;;5.15;;
22949;SDS011;11641;51.018;4.474;2022-09-01T06:14:53;9.20;;;4.68;;
22949;SDS011;11641;51.018;4.474;2022-09-01T06:17:21;12.43;;;5.00;;
22949;SDS011;11641;51.018;4.474;2022-09-01T06:19:51;15.60;;;5.65;;
22949;SDS011;11641;51.018;4.474;2022-09-01T06:22:24;11.35;;;5.03;;
22949;SDS011;11641;51.018;4.474;2022-09-01T06:24:51;10.73;;;4.95;;
22949;SDS011;11641;51.018;4.474;2022-09-01T06:27:19;12.38;;;5.55;;
22949;SDS011;11641;51.018;4.474;2022-09-01T06:29:46;13.43;;;5.05;;
22949;SDS011;11641;51.018;4.474;2022-09-01T06:32:19;12.43;;;5.57;;
22949;SDS011;11641;51.018;4.474;2022-09-01T06:34:45;13.15;;;5.97;;
22949;SDS011;11641;51.018;4.474;2022-09-01T06:37:15;12.90;;;5.45;;
22949;SDS011;11641;51.018;4.474;2022-09-01T06:39:46;10.05;;;5.60;;
22949;SDS011;11641;51.018;4.474;2022-09-01T06:42:12;12.00;;;5.78;;
22949;SDS011;11641;51.018;4.474;2022-09-01T06:44:39;13.98;;;5.50;;
22949;SDS011;11641;51.018;4.474;2022-09-01T06:47:07;10.18;;;5.35;;
22949;SDS011;11641;51.018;4.474;2022-09-01T06:49:33;19.45;;;5.88;;
22949;SDS011;11641;51.018;4.474;2022-09-01T06:52:01;14.77;;;5.82;;
22949;SDS011;11641;51.018;4.474;2022-09-01T06:54:30;16.20;;;5.88;;
22949;SDS011;11641;51.018;4.474;2022-09-01T06:56:59;11.38;;;6.03;;
22949;SDS011;11641;51.018;4.474;2022-09-01T06:59:28;13.10;;;5.50;;
22949;SDS011;11641;51.018;4.474;2022-09-01T07:01:58;16.85;;;6.45;;
22949;SDS011;11641;51.018;4.474;2022-09-01T07:04:29;13.95;;;5.93;;
22949;SDS011;11641;51.018;4.474;2022-09-01T07:06:55;12.15;;;6.13;;
22949;SDS011;11641;51.018;4.474;2022-09-01T07:09:29;14.55;;;5.88;;
22949;SDS011;11641;51.018;4.474;2022-09-01T07:11:56;16.25;;;5.80;;
22949;SDS011;11641;51.018;4.474;2022-09-01T07:14:23;15.77;;;5.93;;
22949;SDS011;11641;51.018;4.474;2022-09-01T07:16:49;13.77;;;5.90;;
22949;SDS011;11641;51.018;4.474;2022-09-01T07:19:15;11.85;;;5.60;;
22949;SDS011;11641;51.018;4.474;2022-09-01T07:21:41;15.88;;;5.82;;
22949;SDS011;11641;51.018;4.474;2022-09-01T07:24:10;12.85;;;5.40;;
22949;SDS011;11641;51.018;4.474;2022-09-01T07:26:39;10.05;;;4.85;;
22949;SDS011;11641;51.018;4.474;2022-09-01T07:29:08;9.48;;;5.00;;
22949;SDS011;11641;51.018;4.474;2022-09-01T07:31:36;7.78;;;4.82;;
22949;SDS011;11641;51.018;4.474;2022-09-01T07:34:06;11.70;;;4.97;;
22949;SDS011;11641;51.018;4.474;2022-09-01T07:36:36;8.50;;;4.63;;
22949;SDS011;11641;51.018;4.474;2022-09-01T07:39:09;16.27;;;5.95;;
22949;SDS011;11641;51.018;4.474;2022-09-01T07:41:38;11.52;;;4.47;;
22949;SDS011;11641;51.018;4.474;2022-09-01T07:44:07;11.55;;;4.80;;
22949;SDS011;11641;51.018;4.474;2022-09-01T07:46:37;12.32;;;5.13;;
22949;SDS011;11641;51.018;4.474;2022-09-01T07:49:27;10.63;;;4.72;;
22949;SDS011;11641;51.018;4.474;2022-09-01T07:51:54;16.17;;;4.47;;
22949;SDS011;11641;51.018;4.474;2022-09-01T07:54:23;7.28;;;3.92;;
22949;SDS011;11641;51.018;4.474;2022-09-01T07:56:49;8.35;;;3.60;;
22949;SDS011;11641;51.018;4.474;2022-09-01T07:59:19;10.45;;;3.55;;
22949;SDS011;11641;51.018;4.474;2022-09-01T08:01:46;12.13;;;3.63;;
22949;SDS011;11641;51.018;4.474;2022-09-01T08:04:16;11.15;;;3.58;;
22949;SDS011;11641;51.018;4.474;2022-09-01T08:06:46;7.75;;;3.53;;
22949;SDS011;11641;51.018;4.474;2022-09-01T08:09:12;8.15;;;3.13;;
22949;SDS011;11641;51.018;4.474;2022-09-01T08:11:41;8.25;;;3.22;;
22949;SDS011;11641;51.018;4.474;2022-09-01T08:14:06;7.93;;;3.05;;
22949;SDS011;11641;51.018;4.474;2022-09-01T08:16:34;7.15;;;3.00;;
22949;SDS011;11641;51.018;4.474;2022-09-01T08:19:00;8.75;;;2.80;;
22949;SDS011;11641;51.018;4.474;2022-09-01T08:21:26;3.75;;;2.42;;
22949;SDS011;11641;51.018;4.474;2022-09-01T08:23:53;5.88;;;2.85;;
22949;SDS011;11641;51.018;4.474;2022-09-01T08:26:23;8.38;;;3.03;;
22949;SDS011;11641;51.018;4.474;2022-09-01T08:28:51;7.38;;;2.75;;
22949;SDS011;11641;51.018;4.474;2022-09-01T08:31:18;10.88;;;2.65;;
22949;SDS011;11641;51.018;4.474;2022-09-01T08:33:47;5.78;;;3.00;;
22949;SDS011;11641;51.018;4.474;2022-09-01T08:36:15;6.10;;;2.50;;
22949;SDS011;11641;51.018;4.474;2022-09-01T08:38:42;5.43;;;2.25;;
22949;SDS011;11641;51.018;4.474;2022-09-01T08:41:13;6.90;;;2.67;;
22949;SDS011;11641;51.018;4.474;2022-09-01T08:46:32;5.03;;;2.10;;
22949;SDS011;11641;51.018;4.474;2022-09-01T08:49:00;9.55;;;2.58;;
22949;SDS011;11641;51.018;4.474;2022-09-01T08:51:49;7.13;;;2.40;;
22949;SDS011;11641;51.018;4.474;2022-09-01T08:57:13;3.78;;;2.13;;
22949;SDS011;11641;51.018;4.474;2022-09-01T08:59:48;5.93;;;2.00;;
22949;SDS011;11641;51.018;4.474;2022-09-01T09:11:05;4.50;;;1.85;;
22949;SDS011;11641;51.018;4.474;2022-09-01T09:16:23;5.93;;;1.75;;
22949;SDS011;11641;51.018;4.474;2022-09-01T09:21:46;6.97;;;1.98;;
22949;SDS011;11641;51.018;4.474;2022-09-01T09:24:28;2.67;;;1.52;;
22949;SDS011;11641;51.018;4.474;2022-09-01T09:27:17;2.25;;;1.50;;
22949;SDS011;11641;51.018;4.474;2022-09-01T09:29:51;6.18;;;1.67;;
22949;SDS011;11641;51.018;4.474;2022-09-01T09:32:19;5.20;;;1.48;;
22949;SDS011;11641;51.018;4.474;2022-09-01T09:34:46;1.95;;;1.38;;
22949;SDS011;11641;51.018;4.474;2022-09-01T09:37:19;4.30;;;1.60;;
22949;SDS011;11641;51.018;4.474;2022-09-01T09:42:41;3.63;;;1.40;;
22949;SDS011;11641;51.018;4.474;2022-09-01T09:47:57;5.10;;;1.35;;
22949;SDS011;11641;51.018;4.474;2022-09-01T09:50:30;2.60;;;1.30;;
22949;SDS011;11641;51.018;4.474;2022-09-01T09:56:03;3.20;;;1.20;;
22949;SDS011;11641;51.018;4.474;2022-09-01T09:58:43;6.50;;;1.27;;
22949;SDS011;11641;51.018;4.474;2022-09-01T10:01:12;4.18;;;1.23;;
22949;SDS011;11641;51.018;4.474;2022-09-01T10:03:48;4.13;;;1.10;;
22949;SDS011;11641;51.018;4.474;2022-09-01T10:09:06;3.75;;;1.10;;
22949;SDS011;11641;51.018;4.474;2022-09-01T10:11:40;2.65;;;0.93;;
22949;SDS011;11641;51.018;4.474;2022-09-01T10:14:24;5.63;;;1.10;;
22949;SDS011;11641;51.018;4.474;2022-09-01T10:17:00;6.53;;;1.27;;
22949;SDS011;11641;51.018;4.474;2022-09-01T10:19:31;6.13;;;0.88;;
22949;SDS011;11641;51.018;4.474;2022-09-01T10:21:59;8.23;;;1.05;;
22949;SDS011;11641;51.018;4.474;2022-09-01T10:24:31;4.45;;;0.85;;
22949;SDS011;11641;51.018;4.474;2022-09-01T10:27:12;4.47;;;1.00;;
22949;SDS011;11641;51.018;4.474;2022-09-01T10:32:13;2.55;;;0.98;;
22949;SDS011;11641;51.018;4.474;2022-09-01T10:34:45;4.18;;;1.05;;
22949;SDS011;11641;51.018;4.474;2022-09-01T10:37:11;4.65;;;1.10;;
22949;SDS011;11641;51.018;4.474;2022-09-01T10:42:34;2.58;;;0.95;;
22949;SDS011;11641;51.018;4.474;2022-09-01T10:45:00;5.47;;;1.20;;
22949;SDS011;11641;51.018;4.474;2022-09-01T10:47:28;4.85;;;1.10;;
22949;SDS011;11641;51.018;4.474;2022-09-01T10:50:01;3.97;;;1.05;;
22949;SDS011;11641;51.018;4.474;2022-09-01T10:55:08;6.22;;;0.90;;
22949;SDS011;11641;51.018;4.474;2022-09-01T11:08:44;1.42;;;0.80;;
22949;SDS011;11641;51.018;4.474;2022-09-01T11:13:54;6.05;;;0.85;;
22949;SDS011;11641;51.018;4.474;2022-09-01T11:16:37;2.58;;;0.77;;
22949;SDS011;11641;51.018;4.474;2022-09-01T11:19:20;6.80;;;0.80;;
22949;SDS011;11641;51.018;4.474;2022-09-01T11:22:02;5.45;;;1.20;;
22949;SDS011;11641;51.018;4.474;2022-09-01T11:27:09;3.67;;;1.00;;
22949;SDS011;11641;51.018;4.474;2022-09-01T11:32:24;8.55;;;1.00;;
22949;SDS011;11641;51.018;4.474;2022-09-01T11:35:12;4.65;;;0.85;;
22949;SDS011;11641;51.018;4.474;2022-09-01T11:37:51;4.05;;;0.90;;
22949;SDS011;11641;51.018;4.474;2022-09-01T11:40:21;4.45;;;0.90;;
22949;SDS011;11641;51.018;4.474;2022-09-01T11:42:53;3.13;;;0.70;;
22949;SDS011;11641;51.018;4.474;2022-09-01T11:45:22;7.07;;;0.90;;
22949;SDS011;11641;51.018;4.474;2022-09-01T11:47:56;1.20;;;0.63;;
22949;SDS011;11641;51.018;4.474;2022-09-01T11:50:34;4.32;;;0.90;;
22949;SDS011;11641;51.018;4.474;2022-09-01T11:53:14;5.68;;;0.93;;
22949;SDS011;11641;51.018;4.474;2022-09-01T11:55:48;2.00;;;0.60;;
22949;SDS011;11641;51.018;4.474;2022-09-01T12:00:54;1.70;;;1.10;;
22949;SDS011;11641;51.018;4.474;2022-09-01T12:03:28;2.45;;;0.88;;
22949;SDS011;11641;51.018;4.474;2022-09-01T12:08:26;2.45;;;0.85;;
22949;SDS011;11641;51.018;4.474;2022-09-01T12:14:01;2.42;;;0.70;;
22949;SDS011;11641;51.018;4.474;2022-09-01T12:16:29;4.73;;;1.10;;
22949;SDS011;11641;51.018;4.474;2022-09-01T12:18:58;5.47;;;0.98;;
22949;SDS011;11641;51.018;4.474;2022-09-01T12:21:35;2.80;;;0.98;;
22949;SDS011;11641;51.018;4.474;2022-09-01T12:24:11;2.78;;;0.77;;
22949;SDS011;11641;51.018;4.474;2022-09-01T12:26:42;3.38;;;1.30;;
22949;SDS011;11641;51.018;4.474;2022-09-01T12:29:09;2.00;;;1.05;;
22949;SDS011;11641;51.018;4.474;2022-09-01T12:31:40;7.00;;;1.00;;
22949;SDS011;11641;51.018;4.474;2022-09-01T12:39:40;4.03;;;1.23;;
22949;SDS011;11641;51.018;4.474;2022-09-01T12:42:21;4.13;;;1.10;;
22949;SDS011;11641;51.018;4.474;2022-09-01T12:50:03;1.67;;;0.93;;
22949;SDS011;11641;51.018;4.474;2022-09-01T12:52:32;2.03;;;1.00;;
22949;SDS011;11641;51.018;4.474;2022-09-01T12:57:30;4.05;;;1.08;;
22949;SDS011;11641;51.018;4.474;2022-09-01T13:02:47;3.63;;;0.90;;
22949;SDS011;11641;51.018;4.474;2022-09-01T13:05:33;5.03;;;1.10;;
22949;SDS011;11641;51.018;4.474;2022-09-01T13:08:09;3.70;;;0.93;;
22949;SDS011;11641;51.018;4.474;2022-09-01T13:10:48;3.63;;;1.00;;
22949;SDS011;11641;51.018;4.474;2022-09-01T13:13:16;1.70;;;1.00;;
22949;SDS011;11641;51.018;4.474;2022-09-01T13:15:44;6.18;;;1.02;;
22949;SDS011;11641;51.018;4.474;2022-09-01T13:18:12;2.42;;;0.93;;
22949;SDS011;11641;51.018;4.474;2022-09-01T13:20:39;6.88;;;1.20;;
22949;SDS011;11641;51.018;4.474;2022-09-01T13:23:07;1.95;;;0.70;;
22949;SDS011;11641;51.018;4.474;2022-09-01T13:25:33;3.63;;;0.90;;
22949;SDS011;11641;51.018;4.474;2022-09-01T13:27:59;6.63;;;1.10;;
22949;SDS011;11641;51.018;4.474;2022-09-01T13:30:27;5.00;;;1.10;;
22949;SDS011;11641;51.018;4.474;2022-09-01T13:32:56;5.13;;;1.13;;
22949;SDS011;11641;51.018;4.474;2022-09-01T13:35:22;5.63;;;1.02;;
22949;SDS011;11641;51.018;4.474;2022-09-01T13:37:51;5.03;;;1.20;;
22949;SDS011;11641;51.018;4.474;2022-09-01T13:40:18;1.88;;;0.85;;
22949;SDS011;11641;51.018;4.474;2022-09-01T13:42:46;4.18;;;1.05;;
22949;SDS011;11641;51.018;4.474;2022-09-01T13:45:14;2.40;;;1.00;;
22949;SDS011;11641;51.018;4.474;2022-09-01T13:47:43;6.97;;;1.17;;
22949;SDS011;11641;51.018;4.474;2022-09-01T13:50:10;6.13;;;1.10;;
22949;SDS011;11641;51.018;4.474;2022-09-01T13:52:43;4.28;;;0.85;;
22949;SDS011;11641;51.018;4.474;2022-09-01T13:55:18;4.28;;;0.98;;
22949;SDS011;11641;51.018;4.474;2022-09-01T13:57:46;3.30;;;1.30;;
22949;SDS011;11641;51.018;4.474;2022-09-01T14:00:13;6.03;;;1.25;;
22949;SDS011;11641;51.018;4.474;2022-09-01T14:02:46;7.35;;;1.10;;
22949;SDS011;11641;51.018;4.474;2022-09-01T14:05:18;8.90;;;1.30;;
22949;SDS011;11641;51.018;4.474;2022-09-01T14:07:48;5.97;;;0.98;;
22949;SDS011;11641;51.018;4.474;2022-09-01T14:10:17;4.43;;;0.80;;
22949;SDS011;11641;51.018;4.474;2022-09-01T14:12:47;2.42;;;1.00;;
22949;SDS011;11641;51.018;4.474;2022-09-01T14:15:14;3.03;;;0.60;;
22949;SDS011;11641;51.018;4.474;2022-09-01T14:17:41;4.88;;;0.90;;
22949;SDS011;11641;51.018;4.474;2022-09-01T14:20:09;2.78;;;0.98;;
22949;SDS011;11641;51.018;4.474;2022-09-01T14:22:42;5.05;;;1.20;;
22949;SDS011;11641;51.018;4.474;2022-09-01T14:25:13;2.72;;;0.90;;
22949;SDS011;11641;51.018;4.474;2022-09-01T14:27:44;3.60;;;0.90;;
22949;SDS011;11641;51.018;4.474;2022-09-01T14:30:12;5.82;;;0.90;;
22949;SDS011;11641;51.018;4.474;2022-09-01T14:32:43;2.53;;;0.77;;
22949;SDS011;11641;51.018;4.474;2022-09-01T14:35:09;4.72;;;0.90;;
22949;SDS011;11641;51.018;4.474;2022-09-01T14:37:37;4.70;;;0.77;;
22949;SDS011;11641;51.018;4.474;2022-09-01T14:40:04;5.47;;;0.70;;
22949;SDS011;11641;51.018;4.474;2022-09-01T14:42:39;4.85;;;1.13;;
22949;SDS011;11641;51.018;4.474;2022-09-01T14:45:08;3.60;;;0.70;;
22949;SDS011;11641;51.018;4.474;2022-09-01T14:47:42;2.53;;;0.80;;
22949;SDS011;11641;51.018;4.474;2022-09-01T14:50:10;2.15;;;0.63;;
22949;SDS011;11641;51.018;4.474;2022-09-01T14:52:37;3.10;;;0.80;;
22949;SDS011;11641;51.018;4.474;2022-09-01T14:55:32;4.07;;;0.65;;
22949;SDS011;11641;51.018;4.474;2022-09-01T14:58:00;1.35;;;0.75;;
22949;SDS011;11641;51.018;4.474;2022-09-01T15:00:26;4.15;;;0.77;;
22949;SDS011;11641;51.018;4.474;2022-09-01T15:02:55;2.25;;;0.77;;
22949;SDS011;11641;51.018;4.474;2022-09-01T15:05:23;3.53;;;0.82;;
22949;SDS011;11641;51.018;4.474;2022-09-01T15:07:52;3.58;;;0.82;;
22949;SDS011;11641;51.018;4.474;2022-09-01T15:10:21;3.78;;;0.63;;
22949;SDS011;11641;51.018;4.474;2022-09-01T15:12:50;4.38;;;0.80;;
22949;SDS011;11641;51.018;4.474;2022-09-01T15:15:33;0.82;;;0.57;;
22949;SDS011;11641;51.018;4.474;2022-09-01T15:17:59;2.05;;;0.70;;
22949;SDS011;11641;51.018;4.474;2022-09-01T15:20:26;2.70;;;0.60;;
22949;SDS011;11641;51.018;4.474;2022-09-01T15:23:15;4.15;;;0.90;;
22949;SDS011;11641;51.018;4.474;2022-09-01T15:25:43;2.67;;;0.80;;
22949;SDS011;11641;51.018;4.474;2022-09-01T15:28:10;4.25;;;0.80;;
22949;SDS011;11641;51.018;4.474;2022-09-01T15:30:42;4.07;;;0.80;;
22949;SDS011;11641;51.018;4.474;2022-09-01T15:33:10;4.65;;;1.00;;
22949;SDS011;11641;51.018;4.474;2022-09-01T15:35:36;5.25;;;0.90;;
22949;SDS011;11641;51.018;4.474;2022-09-01T15:38:05;3.20;;;0.90;;
22949;SDS011;11641;51.018;4.474;2022-09-01T15:40:32;4.28;;;0.90;;
22949;SDS011;11641;51.018;4.474;2022-09-01T15:43:00;3.15;;;0.90;;
22949;SDS011;11641;51.018;4.474;2022-09-01T15:45:31;5.72;;;0.95;;
22949;SDS011;11641;51.018;4.474;2022-09-01T15:47:57;2.92;;;0.70;;
22949;SDS011;11641;51.018;4.474;2022-09-01T15:50:26;2.58;;;0.80;;
22949;SDS011;11641;51.018;4.474;2022-09-01T15:52:57;3.85;;;0.70;;
22949;SDS011;11641;51.018;4.474;2022-09-01T15:55:30;5.68;;;0.90;;
22949;SDS011;11641;51.018;4.474;2022-09-01T15:58:01;7.40;;;0.80;;
22949;SDS011;11641;51.018;4.474;2022-09-01T16:00:27;8.68;;;1.10;;
22949;SDS011;11641;51.018;4.474;2022-09-01T16:02:54;7.30;;;1.15;;
22949;SDS011;11641;51.018;4.474;2022-09-01T16:05:26;2.65;;;1.17;;
22949;SDS011;11641;51.018;4.474;2022-09-01T16:07:55;4.10;;;1.23;;
22949;SDS011;11641;51.018;4.474;2022-09-01T16:10:23;1.98;;;0.88;;
22949;SDS011;11641;51.018;4.474;2022-09-01T16:12:48;2.92;;;0.88;;
22949;SDS011;11641;51.018;4.474;2022-09-01T16:15:16;2.08;;;1.38;;
22949;SDS011;11641;51.018;4.474;2022-09-01T16:24:12;3.85;;;0.80;;
22949;SDS011;11641;51.018;4.474;2022-09-01T16:26:43;0.93;;;0.80;;
22949;SDS011;11641;51.018;4.474;2022-09-01T16:29:15;3.03;;;0.85;;
22949;SDS011;11641;51.018;4.474;2022-09-01T16:32:17;4.80;;;0.80;;
22949;SDS011;11641;51.018;4.474;2022-09-01T16:34:46;3.58;;;0.60;;
22949;SDS011;11641;51.018;4.474;2022-09-01T16:39:52;2.40;;;0.80;;
22949;SDS011;11641;51.018;4.474;2022-09-01T16:48:12;3.55;;;1.25;;
22949;SDS011;11641;51.018;4.474;2022-09-01T16:51:03;3.95;;;1.10;;